createdAt,value
2022-07-28T00:00:27.842Z,101913.50
2022-07-28T00:03:00.581Z,101911.81
2022-07-28T00:05:32.436Z,101911.19
2022-07-28T00:08:06.378Z,101909.69
2022-07-28T00:10:38.460Z,101909.09
2022-07-28T00:13:10.355Z,101911.19
2022-07-28T00:15:42.241Z,101898.75
2022-07-28T00:18:14.181Z,101898.97
2022-07-28T00:20:46.033Z,101905.28
2022-07-28T00:23:17.889Z,101905.47
2022-07-28T00:25:49.731Z,101910.97
2022-07-28T00:28:21.637Z,101909.25
2022-07-28T00:30:55.326Z,101906.75
2022-07-28T00:33:28.100Z,101908.84
2022-07-28T00:35:59.942Z,101905.50
2022-07-28T00:38:31.809Z,101906.72
2022-07-28T00:41:12.958Z,101898.72
2022-07-28T00:43:47.108Z,101909.03
2022-07-28T00:46:20.607Z,101908.41
2022-07-28T00:48:54.069Z,101905.03
2022-07-28T00:51:26.914Z,101905.44
2022-07-28T00:53:58.949Z,101902.91
2022-07-28T00:56:31.040Z,101904.16
2022-07-28T00:59:03.413Z,101900.78
2022-07-28T01:01:35.419Z,101899.13
2022-07-28T01:04:07.399Z,101894.03
2022-07-28T01:07:07.204Z,101894.03
2022-07-28T01:10:03.884Z,101892.34
2022-07-28T01:12:48.685Z,101900.56
2022-07-28T01:15:32.045Z,101901.63
2022-07-28T01:18:10.791Z,101900.78
2022-07-28T01:20:50.760Z,101899.28
2022-07-28T01:23:44.112Z,101902.00
2022-07-28T01:26:39.028Z,101907.50
2022-07-28T01:29:18.911Z,101905.16
2022-07-28T01:32:03.547Z,101905.38
2022-07-28T01:34:44.423Z,101905.34
2022-07-28T01:37:22.112Z,101905.75
2022-07-28T01:39:57.577Z,101907.03
2022-07-28T01:42:35.585Z,101909.94
2022-07-28T01:45:08.954Z,101909.94
2022-07-28T01:47:43.409Z,101912.03
2022-07-28T01:50:16.599Z,101915.41
2022-07-28T01:52:49.097Z,101913.31
2022-07-28T01:55:22.606Z,101923.22
2022-07-28T01:57:55.859Z,101917.72
2022-07-28T02:00:28.165Z,101915.84
2022-07-28T02:03:01.641Z,101920.09
2022-07-28T02:05:35.874Z,101916.94
2022-07-28T02:08:09.005Z,101916.13
2022-07-28T02:10:42.396Z,101905.78
2022-07-28T02:13:14.442Z,101908.75
2022-07-28T02:15:46.881Z,101907.31
2022-07-28T02:18:18.821Z,101909.44
2022-07-28T02:20:50.983Z,101902.09
2022-07-28T02:23:23.983Z,101898.69
2022-07-28T02:25:57.866Z,101895.72
2022-07-28T02:28:29.764Z,101899.94
2022-07-28T02:31:05.394Z,101905.78
2022-07-28T02:33:59.589Z,101894.22
2022-07-28T02:36:35.403Z,101900.75
2022-07-28T02:39:14.229Z,101903.91
2022-07-28T02:41:51.500Z,101903.66
2022-07-28T02:44:27.599Z,101905.75
2022-07-28T02:47:00.267Z,101909.75
2022-07-28T02:49:33.845Z,101913.72
2022-07-28T02:52:07.918Z,101912.03
2022-07-28T02:54:41.092Z,101915.63
2022-07-28T02:57:14.107Z,101912.03
2022-07-28T02:59:46.624Z,101914.13
2022-07-28T03:02:22.179Z,101914.31
2022-07-28T03:04:58.716Z,101916.19
2022-07-28T03:07:32.942Z,101908.84
2022-07-28T03:10:05.695Z,101915.16
2022-07-28T03:12:37.913Z,101919.59
2022-07-28T03:15:10.407Z,101933.06
2022-07-28T03:17:44.059Z,101932.03
2022-07-28T03:20:16.088Z,101936.25
2022-07-28T03:22:47.974Z,101939.00
2022-07-28T03:25:24.658Z,101934.78
2022-07-28T03:27:58.539Z,101940.88
2022-07-28T03:30:34.865Z,101943.25
2022-07-28T03:33:06.980Z,101939.88
2022-07-28T03:35:40.096Z,101945.34
2022-07-28T03:38:17.759Z,101946.19
2022-07-28T03:40:50.454Z,101948.28
2022-07-28T03:43:25.200Z,101949.97
2022-07-28T03:45:57.372Z,101950.41
2022-07-28T03:48:30.806Z,101945.78
2022-07-28T03:51:02.752Z,101944.50
2022-07-28T03:53:34.772Z,101953.38
2022-07-28T03:56:06.763Z,101952.09
2022-07-28T03:58:38.920Z,101954.63
2022-07-28T04:01:11.107Z,101951.47
2022-07-28T04:03:44.395Z,101950.03
2022-07-28T04:06:16.494Z,101949.41
2022-07-28T04:08:48.395Z,101959.53
2022-07-28T04:11:20.325Z,101946.31
2022-07-28T04:13:52.198Z,101951.38
2022-07-28T04:16:24.338Z,101948.00
2022-07-28T04:18:56.245Z,101950.53
2022-07-28T04:21:28.106Z,101950.97
2022-07-28T04:24:02.115Z,101950.13
2022-07-28T04:26:34.073Z,101953.06
2022-07-28T04:29:06.112Z,101957.25
2022-07-28T04:31:38.034Z,101965.25
2022-07-28T04:34:10.011Z,101954.06
2022-07-28T04:36:43.575Z,101948.59
2022-07-28T04:39:16.199Z,101950.09
2022-07-28T04:41:48.204Z,101943.34
2022-07-28T04:44:20.186Z,101951.38
2022-07-28T04:46:52.057Z,101961.50
2022-07-28T04:49:23.984Z,101959.78
2022-07-28T04:51:57.131Z,101959.78
2022-07-28T04:54:29.347Z,101957.25
2022-07-28T04:57:03.750Z,101959.78
2022-07-28T04:59:42.887Z,101962.13
2022-07-28T05:02:15.135Z,101951.81
2022-07-28T05:04:47.446Z,101955.16
2022-07-28T05:07:19.815Z,101960.25
2022-07-28T05:09:51.847Z,101959.22
2022-07-28T05:12:23.967Z,101956.03
2022-07-28T05:14:56.070Z,101953.50
2022-07-28T05:17:28.046Z,101950.16
2022-07-28T05:19:59.967Z,101957.75
2022-07-28T05:22:45.847Z,101961.97
2022-07-28T05:25:19.575Z,101954.81
2022-07-28T05:27:52.569Z,101964.94
2022-07-28T05:30:24.567Z,101961.19
2022-07-28T05:33:00.095Z,101970.47
2022-07-28T05:35:32.179Z,101973.22
2022-07-28T05:38:08.832Z,101973.22
2022-07-28T05:40:42.751Z,101973.22
2022-07-28T05:43:14.663Z,101981.25
2022-07-28T05:45:47.282Z,101981.66
2022-07-28T05:48:20.382Z,101980.19
2022-07-28T05:50:54.358Z,101979.78
2022-07-28T05:53:26.284Z,101979.78
2022-07-28T05:56:01.074Z,101985.66
2022-07-28T05:58:33.494Z,101984.38
2022-07-28T06:01:05.708Z,101982.72
2022-07-28T06:03:42.107Z,101980.59
2022-07-28T06:06:16.854Z,101981.66
2022-07-28T06:08:48.972Z,101975.94
2022-07-28T06:11:21.861Z,101975.53
2022-07-28T06:13:55.046Z,101970.47
2022-07-28T06:16:26.959Z,101968.53
2022-07-28T06:18:59.199Z,101966.22
2022-07-28T06:21:33.043Z,101977.59
2022-07-28T06:24:05.651Z,101980.09
2022-07-28T06:26:43.634Z,101986.41
2022-07-28T06:29:16.674Z,101989.22
2022-07-28T06:31:48.583Z,101988.13
2022-07-28T06:34:20.800Z,101994.88
2022-07-28T06:36:55.134Z,101999.94
2022-07-28T06:39:27.169Z,101998.88
2022-07-28T06:41:59.352Z,102006.69
2022-07-28T06:44:54.909Z,101997.38
2022-07-28T06:47:23.302Z,101996.16
2022-07-28T06:49:56.179Z,101995.97
2022-07-28T06:52:28.409Z,101997.44
2022-07-28T06:55:00.658Z,101999.53
2022-07-28T06:57:34.649Z,101991.13
2022-07-28T07:00:08.601Z,102006.97
2022-07-28T07:02:41.760Z,102006.31
2022-07-28T07:05:14.130Z,102004.63
2022-07-28T07:07:46.015Z,102004.41
2022-07-28T07:10:17.956Z,102013.06
2022-07-28T07:12:50.010Z,102007.19
2022-07-28T07:15:22.086Z,102007.59
2022-07-28T07:17:54.267Z,102005.25
2022-07-28T07:20:26.444Z,102009.69
2022-07-28T07:22:58.473Z,102007.56
2022-07-28T07:25:30.589Z,102006.31
2022-07-28T07:28:02.512Z,102005.88
2022-07-28T07:30:34.818Z,102012.41
2022-07-28T07:33:10.555Z,102015.97
2022-07-28T07:35:43.051Z,102015.75
2022-07-28T07:38:15.110Z,102018.50
2022-07-28T07:40:47.429Z,102026.97
2022-07-28T07:43:19.614Z,102020.25
2022-07-28T07:45:51.594Z,102009.69
2022-07-28T07:48:23.616Z,102016.44
2022-07-28T07:50:55.646Z,102019.00
2022-07-28T07:53:27.949Z,102026.78
2022-07-28T07:55:59.982Z,102025.28
2022-07-28T07:58:31.980Z,102024.63
2022-07-28T08:01:03.980Z,102019.78
2022-07-28T08:03:35.947Z,102023.13
2022-07-28T08:06:08.033Z,102022.28
2022-07-28T08:08:46.383Z,102015.50
2022-07-28T08:11:20.381Z,102019.06
2022-07-28T08:13:52.322Z,102015.88
2022-07-28T08:16:24.398Z,102021.75
2022-07-28T08:18:58.362Z,102013.25
2022-07-28T08:21:30.351Z,102010.69
2022-07-28T08:24:03.871Z,102016.81
2022-07-28T08:26:35.782Z,102020.91
2022-07-28T08:29:09.453Z,102013.31
2022-07-28T08:31:41.432Z,102024.69
2022-07-28T08:34:26.216Z,102023.38
2022-07-28T08:37:05.542Z,102022.34
2022-07-28T08:39:37.540Z,102011.72
2022-07-28T08:42:14.454Z,102017.41
2022-07-28T08:44:53.025Z,102017.16
2022-07-28T08:47:35.638Z,102013.56
2022-07-28T08:50:15.747Z,102009.53
2022-07-28T08:52:50.739Z,102016.44
2022-07-28T08:55:31.845Z,102013.41
2022-07-28T08:58:04.699Z,102014.75
2022-07-28T09:00:36.851Z,101998.78
2022-07-28T09:03:11.984Z,101997.03
2022-07-28T09:05:44.245Z,102003.69
2022-07-28T09:08:19.995Z,102005.63
2022-07-28T09:10:52.823Z,102004.59
2022-07-28T09:13:24.795Z,102006.25
2022-07-28T09:15:57.326Z,101998.81
2022-07-28T09:18:29.319Z,102004.84
2022-07-28T09:21:01.283Z,102001.19
2022-07-28T09:23:44.536Z,101998.22
2022-07-28T09:26:17.754Z,101994.56
2022-07-28T09:28:55.164Z,101994.47
2022-07-28T09:31:28.851Z,101993.94
2022-07-28T09:34:03.301Z,101994.34
2022-07-28T09:36:40.348Z,101997.69
2022-07-28T09:39:12.312Z,101997.25
2022-07-28T09:41:51.067Z,102002.91
2022-07-28T09:44:24.444Z,102005.69
2022-07-28T09:46:57.078Z,102011.41
2022-07-28T09:49:43.183Z,102012.84
2022-07-28T09:52:30.524Z,102005.69
2022-07-28T09:55:06.096Z,102009.94
2022-07-28T09:57:40.253Z,102007.88
2022-07-28T10:00:25.892Z,101999.84
2022-07-28T10:03:00.141Z,101997.91
2022-07-28T10:05:41.658Z,102002.13
2022-07-28T10:08:13.541Z,102007.34
2022-07-28T10:11:12.431Z,102004.03
2022-07-28T10:13:54.251Z,102014.09
2022-07-28T10:16:28.767Z,102010.78
2022-07-28T10:19:03.534Z,102001.50
2022-07-28T10:21:46.968Z,101998.56
2022-07-28T10:24:22.999Z,101990.81
2022-07-28T10:26:56.925Z,101997.97
2022-07-28T10:29:31.532Z,102001.34
2022-07-28T10:32:06.435Z,101996.94
2022-07-28T10:34:45.183Z,102002.22
2022-07-28T10:37:24.373Z,102005.38
2022-07-28T10:40:10.744Z,101995.09
2022-07-28T10:42:43.209Z,102000.28
2022-07-28T10:45:15.774Z,101998.91
2022-07-28T10:47:48.388Z,101998.13
2022-07-28T10:50:21.305Z,101996.06
2022-07-28T10:52:58.997Z,101994.16
2022-07-28T10:55:34.144Z,101995.53
2022-07-28T10:58:10.856Z,101996.84
2022-07-28T11:00:56.798Z,101989.88
2022-07-28T11:03:36.118Z,101996.44
2022-07-28T11:06:30.243Z,101997.94
2022-07-28T11:09:17.678Z,101995.25
2022-07-28T11:11:52.612Z,101989.38
2022-07-28T11:14:26.052Z,102000.59
2022-07-28T11:17:01.724Z,101994.28
2022-07-28T11:22:37.661Z,101998.25
2022-07-28T11:25:20.210Z,101995.94
2022-07-28T11:27:54.577Z,101995.25
2022-07-28T11:30:32.697Z,101988.44
2022-07-28T11:33:06.437Z,101998.97
2022-07-28T11:35:41.160Z,102001.66
2022-07-28T11:38:14.534Z,101995.22
2022-07-28T11:40:49.355Z,101991.13
2022-07-28T11:43:22.310Z,101997.53
2022-07-28T11:46:10.149Z,101993.88
2022-07-28T11:48:45.130Z,101990.81
2022-07-28T11:51:17.417Z,101994.81
2022-07-28T11:53:51.156Z,101978.88
2022-07-28T11:56:29.304Z,101989.06
2022-07-28T11:59:06.055Z,101992.06
2022-07-28T12:01:38.767Z,101993.50
2022-07-28T12:04:16.028Z,101986.06
2022-07-28T12:06:51.229Z,101992.44
2022-07-28T12:09:39.775Z,101992.66
2022-07-28T12:12:13.816Z,101996.72
2022-07-28T12:14:46.464Z,101992.06
2022-07-28T12:17:18.633Z,101990.13
2022-07-28T12:19:50.505Z,101994.97
2022-07-28T12:22:22.358Z,101987.75
2022-07-28T12:24:58.496Z,101990.25
2022-07-28T12:27:31.713Z,101989.44
2022-07-28T12:30:05.609Z,101988.16
2022-07-28T12:32:37.911Z,101985.56
2022-07-28T12:35:10.401Z,101986.06
2022-07-28T12:37:44.277Z,101984.47
2022-07-28T12:40:17.962Z,101979.00
2022-07-28T12:42:59.249Z,101978.09
2022-07-28T12:45:33.229Z,101978.22
2022-07-28T12:48:06.813Z,101979.56
2022-07-28T12:50:39.685Z,101972.84
2022-07-28T12:53:12.413Z,101976.59
2022-07-28T12:55:44.888Z,101977.38
2022-07-28T12:58:24.911Z,101968.97
2022-07-28T13:00:57.233Z,101967.56
2022-07-28T13:03:29.668Z,101964.22
2022-07-28T13:06:10.334Z,101968.31
2022-07-28T13:08:45.110Z,101961.34
2022-07-28T13:14:09.312Z,101971.91
2022-07-28T13:16:41.357Z,101966.88
2022-07-28T13:19:21.737Z,101963.16
2022-07-28T13:22:01.696Z,101966.00
2022-07-28T13:24:36.258Z,101957.03
2022-07-28T13:27:08.843Z,101956.28
2022-07-28T13:29:40.773Z,101947.44
2022-07-28T13:32:12.939Z,101949.69
2022-07-28T13:34:45.651Z,101948.25
2022-07-28T13:37:18.172Z,101944.06
2022-07-28T13:39:54.567Z,101942.38
2022-07-28T13:42:27.060Z,101941.66
2022-07-28T13:45:00.201Z,101941.19
2022-07-28T13:47:38.750Z,101939.03
2022-07-28T13:50:11.246Z,101939.88
2022-07-28T13:52:44.145Z,101941.56
2022-07-28T13:55:17.713Z,101926.53
2022-07-28T13:57:52.974Z,101939.03
2022-07-28T14:00:25.274Z,101932.00
2022-07-28T14:02:57.371Z,101929.75
2022-07-28T14:05:31.894Z,101928.56
2022-07-28T14:08:05.261Z,101931.31
2022-07-28T14:10:37.139Z,101923.22
2022-07-28T14:13:09.283Z,101921.94
2022-07-28T14:15:41.805Z,101924.91
2022-07-28T14:18:13.906Z,101912.94
2022-07-28T14:20:45.828Z,101912.44
2022-07-28T14:23:17.696Z,101916.84
2022-07-28T14:25:50.903Z,101909.72
2022-07-28T14:28:23.441Z,101908.38
2022-07-28T14:30:55.703Z,101903.56
2022-07-28T14:33:29.431Z,101904.66
2022-07-28T14:36:01.697Z,101907.56
2022-07-28T14:38:52.352Z,101894.47
2022-07-28T14:41:26.024Z,101902.91
2022-07-28T14:43:59.072Z,101895.47
2022-07-28T14:46:31.354Z,101894.94
2022-07-28T14:49:03.702Z,101893.41
2022-07-28T14:51:39.361Z,101893.81
2022-07-28T14:54:15.383Z,101905.19
2022-07-28T14:56:47.826Z,101897.88
2022-07-28T14:59:19.861Z,101892.66
2022-07-28T15:01:51.949Z,101889.63
2022-07-28T15:04:25.480Z,101886.81
2022-07-28T15:06:57.523Z,101895.06
2022-07-28T15:09:29.470Z,101892.03
2022-07-28T15:12:01.462Z,101875.75
2022-07-28T15:14:33.756Z,101879.78
2022-07-28T15:17:05.613Z,101882.22
2022-07-28T15:19:39.042Z,101883.81
2022-07-28T15:22:11.078Z,101884.09
2022-07-28T15:24:45.773Z,101873.63
2022-07-28T15:27:18.020Z,101879.94
2022-07-28T15:29:52.203Z,101878.50
2022-07-28T15:32:28.120Z,101873.00
2022-07-28T15:35:00.265Z,101877.47
2022-07-28T15:37:32.183Z,101871.75
2022-07-28T15:40:04.615Z,101876.00
2022-07-28T15:42:36.606Z,101871.38
2022-07-28T15:45:09.177Z,101867.88
2022-07-28T15:47:41.072Z,101864.38
2022-07-28T15:50:12.946Z,101864.84
2022-07-28T15:52:45.176Z,101863.59
2022-07-28T15:55:17.335Z,101856.25
2022-07-28T15:57:50.572Z,101862.22
2022-07-28T16:00:22.557Z,101856.91
2022-07-28T16:02:54.743Z,101853.44
2022-07-28T16:05:26.871Z,101852.75
2022-07-28T16:07:58.898Z,101847.75
2022-07-28T16:10:30.949Z,101853.19
2022-07-28T16:13:02.848Z,101840.88
2022-07-28T16:15:34.906Z,101855.00
2022-07-28T16:18:06.965Z,101860.97
2022-07-28T16:20:38.921Z,101850.19
2022-07-28T16:23:11.431Z,101855.34
2022-07-28T16:25:45.153Z,101850.09
2022-07-28T16:28:17.381Z,101855.03
2022-07-28T16:30:49.535Z,101847.81
2022-07-28T16:33:21.660Z,101851.66
2022-07-28T16:35:53.757Z,101843.78
2022-07-28T16:38:25.927Z,101843.13
2022-07-28T16:40:57.798Z,101841.81
2022-07-28T16:43:29.751Z,101847.63
2022-07-28T16:46:02.684Z,101847.94
2022-07-28T16:48:35.149Z,101858.88
2022-07-28T16:51:08.080Z,101853.22
2022-07-28T16:53:40.043Z,101849.75
2022-07-28T16:56:17.263Z,101844.09
2022-07-28T16:58:49.445Z,101846.88
2022-07-28T17:01:21.442Z,101848.56
2022-07-28T17:03:53.490Z,101852.72
2022-07-28T17:06:25.731Z,101857.44
2022-07-28T17:08:57.805Z,101850.81
2022-07-28T17:11:29.744Z,101849.75
2022-07-28T17:14:01.658Z,101856.22
2022-07-28T17:16:33.606Z,101847.25
2022-07-28T17:19:05.737Z,101849.28
2022-07-28T17:21:37.899Z,101854.94
2022-07-28T17:24:12.110Z,101854.00
2022-07-28T17:29:36.160Z,101853.66
2022-07-28T17:32:10.187Z,101847.53
2022-07-28T17:34:42.174Z,101843.09
2022-07-28T17:37:14.130Z,101844.41
2022-07-28T17:39:46.242Z,101841.78
2022-07-28T17:42:18.300Z,101848.34
2022-07-28T17:44:51.053Z,101841.63
2022-07-28T17:47:36.003Z,101849.88
2022-07-28T17:50:12.977Z,101853.28
2022-07-28T17:52:45.630Z,101854.72
2022-07-28T17:55:57.487Z,101843.47
2022-07-28T17:58:29.406Z,101851.13
2022-07-28T18:01:10.223Z,101852.19
2022-07-28T18:03:59.114Z,101850.38
2022-07-28T18:06:34.905Z,101850.63
2022-07-28T18:09:09.890Z,101853.25
2022-07-28T18:11:58.016Z,101850.72
2022-07-28T18:14:31.198Z,101850.97
2022-07-28T18:17:03.335Z,101854.56
2022-07-28T18:19:35.351Z,101846.31
2022-07-28T18:22:07.370Z,101846.88
2022-07-28T18:24:39.205Z,101849.41
2022-07-28T18:27:11.095Z,101850.25
2022-07-28T18:29:43.147Z,101846.88
2022-07-28T18:32:15.959Z,101857.91
2022-07-28T18:34:47.869Z,101853.47
2022-07-28T18:37:19.800Z,101848.44
2022-07-28T18:39:51.751Z,101861.63
2022-07-28T18:42:23.636Z,101851.06
2022-07-28T18:44:55.684Z,101852.63
2022-07-28T18:47:29.032Z,101845.94
2022-07-28T18:50:00.864Z,101843.03
2022-07-28T18:52:33.731Z,101834.66
2022-07-28T18:55:07.237Z,101841.69
2022-07-28T18:57:39.374Z,101852.56
2022-07-28T19:00:11.941Z,101847.78
2022-07-28T19:02:43.891Z,101854.00
2022-07-28T19:05:15.770Z,101863.81
2022-07-28T19:07:47.598Z,101860.91
2022-07-28T19:10:19.604Z,101858.88
2022-07-28T19:12:51.668Z,101865.09
2022-07-28T19:15:23.844Z,101855.59
2022-07-28T19:18:11.506Z,101861.78
2022-07-28T19:20:46.561Z,101856.16
2022-07-28T19:23:19.529Z,101870.63
2022-07-28T19:25:51.567Z,101863.88
2022-07-28T19:28:24.024Z,101862.22
2022-07-28T19:30:58.576Z,101873.66
2022-07-28T19:33:31.411Z,101869.06
2022-07-28T19:36:06.454Z,101870.63
2022-07-28T19:38:38.330Z,101869.19
2022-07-28T19:41:12.856Z,101867.56
2022-07-28T19:43:44.872Z,101865.50
2022-07-28T19:46:19.037Z,101872.78
2022-07-28T19:48:51.053Z,101872.47
2022-07-28T19:51:22.947Z,101882.72
2022-07-28T19:53:57.701Z,101874.72
2022-07-28T19:56:31.803Z,101878.63
2022-07-28T19:59:04.236Z,101875.56
2022-07-28T20:01:36.169Z,101881.09
2022-07-28T20:04:16.690Z,101883.53
2022-07-28T20:06:54.866Z,101887.22
2022-07-28T20:09:27.298Z,101880.25
2022-07-28T20:11:59.273Z,101891.44
2022-07-28T20:14:31.334Z,101894.03
2022-07-28T20:17:03.828Z,101888.53
2022-07-28T20:19:35.863Z,101897.88
2022-07-28T20:22:08.008Z,101889.63
2022-07-28T20:24:39.993Z,101892.38
2022-07-28T20:27:12.086Z,101883.03
2022-07-28T20:29:44.081Z,101886.47
2022-07-28T20:32:16.409Z,101889.88
2022-07-28T20:34:48.260Z,101892.25
2022-07-28T20:37:31.334Z,101899.25
2022-07-28T20:40:09.753Z,101892.91
2022-07-28T20:42:41.760Z,101892.28
2022-07-28T20:45:13.822Z,101889.75
2022-07-28T20:47:45.788Z,101896.09
2022-07-28T20:50:17.822Z,101900.75
2022-07-28T20:52:49.903Z,101903.09
2022-07-28T20:55:21.807Z,101905.91
2022-07-28T20:57:57.401Z,101902.72
2022-07-28T21:00:29.491Z,101907.19
2022-07-28T21:03:02.821Z,101904.03
2022-07-28T21:05:36.143Z,101911.47
2022-07-28T21:08:09.492Z,101908.16
2022-07-28T21:10:48.977Z,101913.69
2022-07-28T21:13:20.870Z,101910.34
2022-07-28T21:15:52.837Z,101914.22
2022-07-28T21:18:24.814Z,101918.06
2022-07-28T21:20:57.323Z,101922.91
2022-07-28T21:23:29.375Z,101931.59
2022-07-28T21:26:01.276Z,101924.44
2022-07-28T21:28:51.761Z,101922.34
2022-07-28T21:31:24.283Z,101917.28
2022-07-28T21:33:56.139Z,101921.72
2022-07-28T21:36:27.965Z,101929.53
2022-07-28T21:38:59.929Z,101935.03
2022-07-28T21:41:36.726Z,101927.44
2022-07-28T21:44:08.919Z,101931.22
2022-07-28T21:46:44.019Z,101927.25
2022-07-28T21:49:16.356Z,101929.78
2022-07-28T21:51:48.327Z,101928.28
2022-07-28T21:54:20.305Z,101926.19
2022-07-28T21:56:52.181Z,101923.69
2022-07-28T21:59:24.250Z,101924.28
2022-07-28T22:01:56.374Z,101930.00
2022-07-28T22:04:28.385Z,101924.09
2022-07-28T22:07:00.272Z,101929.56
2022-07-28T22:09:37.729Z,101928.75
2022-07-28T22:12:10.060Z,101926.22
2022-07-28T22:14:41.944Z,101935.94
2022-07-28T22:17:13.786Z,101928.09
2022-07-28T22:19:45.642Z,101928.34
2022-07-28T22:22:18.411Z,101936.13
2022-07-28T22:24:50.632Z,101932.78
2022-07-28T22:27:22.992Z,101939.28
2022-07-28T22:29:55.062Z,101937.59
2022-07-28T22:32:29.296Z,101942.25
2022-07-28T22:35:01.397Z,101943.09
2022-07-28T22:37:33.247Z,101946.03
2022-07-28T22:40:05.918Z,101948.34
2022-07-28T22:42:37.994Z,101940.56
2022-07-28T22:45:10.726Z,101946.88
2022-07-28T22:47:42.782Z,101936.13
2022-07-28T22:50:15.208Z,101948.34
2022-07-28T22:52:48.164Z,101943.09
2022-07-28T22:55:20.113Z,101936.97
2022-07-28T22:57:52.016Z,101946.88
2022-07-28T23:00:24.018Z,101948.97
2022-07-28T23:02:56.118Z,101949.19
2022-07-28T23:05:27.980Z,101956.97
2022-07-28T23:07:59.891Z,101967.06
2022-07-28T23:10:32.646Z,101961.19
2022-07-28T23:13:04.890Z,101967.47
2022-07-28T23:15:40.456Z,101970.44
2022-07-28T23:18:16.449Z,101966.00
2022-07-28T23:20:48.774Z,101960.09
2022-07-28T23:23:21.184Z,101965.13
2022-07-28T23:25:53.654Z,101967.44
2022-07-28T23:28:25.618Z,101968.72
2022-07-28T23:30:57.519Z,101972.69
2022-07-28T23:33:55.119Z,101967.41
2022-07-28T23:36:26.395Z,101973.31
2022-07-28T23:38:59.442Z,101974.78
2022-07-28T23:41:31.489Z,101966.13
2022-07-28T23:44:03.521Z,101981.06
2022-07-28T23:46:35.451Z,101982.34
2022-07-28T23:49:07.703Z,101973.91
2022-07-28T23:51:47.901Z,101973.69
2022-07-28T23:54:20.437Z,101970.47
2022-07-28T23:56:55.177Z,101976.19
2022-07-28T23:59:27.058Z,101978.28
